createdAt,value
2023-01-25T00:01:08.982Z,3.71
2023-01-25T00:03:37.995Z,3.72
2023-01-25T00:06:07.396Z,3.73
2023-01-25T00:08:35.915Z,3.81
2023-01-25T00:11:05.751Z,3.84
2023-01-25T00:13:34.643Z,3.90
2023-01-25T00:16:05.623Z,3.89
2023-01-25T00:18:34.668Z,3.86
2023-01-25T00:21:18.603Z,3.89
2023-01-25T00:23:47.158Z,3.92
2023-01-25T00:26:17.278Z,3.95
2023-01-25T00:28:54.073Z,3.93
2023-01-25T00:31:42.805Z,3.87
2023-01-25T00:34:26.567Z,3.77
2023-01-25T00:37:03.783Z,3.71
2023-01-25T00:39:32.712Z,3.67
2023-01-25T00:42:01.697Z,3.68
2023-01-25T00:44:30.639Z,3.61
2023-01-25T00:46:59.451Z,3.48
2023-01-25T00:49:28.519Z,3.37
2023-01-25T00:51:57.939Z,3.31
2023-01-25T00:54:26.846Z,3.23
2023-01-25T00:56:56.797Z,3.17
2023-01-25T00:59:25.916Z,3.20
2023-01-25T01:01:56.389Z,3.23
2023-01-25T01:04:28.118Z,3.24
2023-01-25T01:06:57.149Z,3.28
2023-01-25T01:09:26.123Z,3.30
2023-01-25T01:11:55.471Z,3.30
2023-01-25T01:14:24.593Z,3.32
2023-01-25T01:16:53.266Z,3.34
2023-01-25T01:19:22.231Z,3.39
2023-01-25T01:21:51.197Z,3.40
2023-01-25T01:24:20.560Z,3.42
2023-01-25T01:26:50.144Z,3.43
2023-01-25T01:29:18.837Z,3.48
2023-01-25T01:31:51.765Z,3.55
2023-01-25T01:34:20.785Z,3.62
2023-01-25T01:36:49.571Z,3.73
2023-01-25T01:39:19.292Z,3.83
2023-01-25T01:41:47.941Z,3.94
2023-01-25T01:44:19.716Z,4.01
2023-01-25T01:46:57.806Z,4.04
2023-01-25T01:49:33.236Z,4.07
2023-01-25T01:52:12.112Z,4.07
2023-01-25T01:54:50.298Z,4.16
2023-01-25T01:57:22.606Z,4.22
2023-01-25T01:59:53.897Z,4.27
2023-01-25T02:02:25.478Z,4.30
2023-01-25T02:04:58.145Z,4.31
2023-01-25T02:07:36.309Z,4.32
2023-01-25T02:10:12.848Z,4.28
2023-01-25T02:12:43.522Z,4.24
2023-01-25T02:15:12.877Z,4.21
2023-01-25T02:17:43.211Z,4.17
2023-01-25T02:20:20.842Z,4.12
2023-01-25T02:23:08.717Z,4.09
2023-01-25T02:25:37.874Z,4.08
2023-01-25T02:28:14.951Z,4.08
2023-01-25T02:30:44.927Z,4.08
2023-01-25T02:33:14.510Z,4.04
2023-01-25T02:35:54.912Z,3.99
2023-01-25T02:38:24.501Z,3.99
2023-01-25T02:40:58.953Z,4.02
2023-01-25T02:43:33.564Z,4.06
2023-01-25T02:46:18.956Z,4.07
2023-01-25T02:48:47.896Z,3.99
2023-01-25T02:51:16.861Z,3.96
2023-01-25T02:53:45.728Z,3.98
2023-01-25T02:56:15.118Z,3.99
2023-01-25T02:58:44.126Z,3.99
2023-01-25T03:01:14.173Z,4.01
2023-01-25T03:03:43.777Z,4.00
2023-01-25T03:06:13.073Z,3.98
2023-01-25T03:08:41.555Z,3.95
2023-01-25T03:11:10.670Z,3.96
2023-01-25T03:13:39.367Z,4.02
2023-01-25T03:16:11.364Z,4.06
2023-01-25T03:18:41.375Z,4.08
2023-01-25T03:21:11.662Z,4.11
2023-01-25T03:23:41.570Z,4.00
2023-01-25T03:26:10.426Z,3.98
2023-01-25T03:28:41.476Z,4.02
2023-01-25T03:31:13.227Z,4.02
2023-01-25T03:33:43.728Z,4.02
2023-01-25T03:36:13.541Z,4.02
2023-01-25T03:38:42.469Z,4.03
2023-01-25T03:41:13.271Z,4.04
2023-01-25T03:43:43.035Z,3.96
2023-01-25T03:46:11.809Z,3.95
2023-01-25T03:48:40.523Z,3.93
2023-01-25T03:51:09.723Z,3.91
2023-01-25T03:53:38.430Z,3.90
2023-01-25T03:56:09.641Z,3.90
2023-01-25T03:58:39.901Z,3.86
2023-01-25T04:01:09.749Z,3.84
2023-01-25T04:03:38.629Z,3.84
2023-01-25T04:06:07.877Z,3.85
2023-01-25T04:08:37.340Z,3.85
2023-01-25T04:11:10.692Z,3.87
2023-01-25T04:13:40.633Z,3.87
2023-01-25T04:16:13.870Z,3.82
2023-01-25T04:18:42.495Z,3.76
2023-01-25T04:21:11.099Z,3.78
2023-01-25T04:23:39.658Z,3.82
2023-01-25T04:26:12.685Z,3.85
2023-01-25T04:28:41.374Z,3.88
2023-01-25T04:31:10.122Z,3.84
2023-01-25T04:33:39.065Z,3.81
2023-01-25T04:36:08.364Z,3.81
2023-01-25T04:38:37.157Z,3.81
2023-01-25T04:41:06.382Z,3.83
2023-01-25T04:43:35.248Z,3.88
2023-01-25T04:46:04.553Z,3.92
2023-01-25T04:48:34.167Z,3.93
2023-01-25T04:51:02.932Z,3.92
2023-01-25T04:53:32.113Z,3.95
2023-01-25T04:56:01.129Z,3.97
2023-01-25T04:58:29.902Z,3.99
2023-01-25T05:01:02.944Z,3.96
2023-01-25T05:03:31.692Z,3.94
2023-01-25T05:06:00.538Z,3.86
2023-01-25T05:08:29.371Z,3.84
2023-01-25T05:10:58.294Z,3.83
2023-01-25T05:13:26.992Z,3.82
2023-01-25T05:15:58.052Z,3.84
2023-01-25T05:18:33.141Z,3.84
2023-01-25T05:21:27.464Z,3.82
2023-01-25T05:23:56.397Z,3.77
2023-01-25T05:26:43.762Z,3.82
2023-01-25T05:29:12.517Z,3.81
2023-01-25T05:31:41.520Z,3.89
2023-01-25T05:34:10.543Z,3.96
2023-01-25T05:36:39.105Z,4.00
2023-01-25T05:39:09.056Z,3.99
2023-01-25T05:41:38.560Z,3.98
2023-01-25T05:44:07.514Z,4.00
2023-01-25T05:46:36.181Z,4.00
2023-01-25T05:49:05.223Z,4.00
2023-01-25T05:51:36.001Z,3.96
2023-01-25T05:54:10.694Z,3.87
2023-01-25T05:56:39.352Z,3.76
2023-01-25T05:59:08.466Z,3.71
2023-01-25T06:01:37.690Z,3.69
2023-01-25T06:04:06.930Z,3.70
2023-01-25T06:06:36.144Z,3.67
2023-01-25T06:09:04.960Z,3.62
2023-01-25T06:11:34.001Z,3.58
2023-01-25T06:14:02.920Z,3.53
2023-01-25T06:16:31.637Z,3.48
2023-01-25T06:19:00.853Z,3.37
2023-01-25T06:21:29.835Z,3.28
2023-01-25T06:23:58.615Z,3.24
2023-01-25T06:26:27.181Z,3.23
2023-01-25T06:28:56.002Z,3.23
2023-01-25T06:31:24.917Z,3.22
2023-01-25T06:33:53.948Z,3.21
2023-01-25T06:36:23.772Z,3.13
2023-01-25T06:38:53.409Z,3.09
2023-01-25T06:41:23.591Z,3.09
2023-01-25T06:43:53.556Z,3.14
2023-01-25T06:46:22.618Z,3.26
2023-01-25T06:48:51.439Z,3.34
2023-01-25T06:51:20.389Z,3.38
2023-01-25T06:53:49.530Z,3.41
2023-01-25T06:56:22.103Z,3.30
2023-01-25T06:58:51.371Z,3.21
2023-01-25T07:01:27.500Z,3.18
2023-01-25T07:03:59.322Z,3.20
2023-01-25T07:06:34.549Z,3.26
2023-01-25T07:09:09.050Z,3.32
2023-01-25T07:11:38.125Z,3.38
2023-01-25T07:14:07.733Z,3.53
2023-01-25T07:16:39.364Z,4.20
2023-01-25T07:19:13.643Z,4.85
2023-01-25T07:21:43.075Z,5.33
2023-01-25T07:24:17.673Z,5.92
2023-01-25T07:26:48.023Z,6.96
2023-01-25T07:29:17.259Z,8.18
2023-01-25T07:31:46.663Z,9.35
2023-01-25T07:34:15.616Z,10.47
2023-01-25T07:36:45.073Z,11.41
2023-01-25T07:39:14.795Z,11.83
2023-01-25T07:41:43.638Z,12.09
2023-01-25T07:44:12.499Z,12.65
2023-01-25T07:46:41.883Z,13.65
2023-01-25T07:49:10.762Z,14.73
2023-01-25T07:51:40.102Z,15.76
2023-01-25T07:54:12.283Z,16.55
2023-01-25T07:56:41.756Z,17.34
2023-01-25T07:59:11.677Z,17.96
2023-01-25T08:01:41.136Z,18.42
2023-01-25T08:04:11.132Z,18.93
2023-01-25T08:06:40.482Z,19.39
2023-01-25T08:09:20.350Z,19.98
2023-01-25T08:11:49.867Z,19.92
2023-01-25T08:14:18.992Z,19.77
2023-01-25T08:16:47.727Z,19.86
2023-01-25T08:19:17.276Z,19.61
2023-01-25T08:21:47.033Z,19.68
2023-01-25T08:24:17.339Z,19.78
2023-01-25T08:26:46.130Z,19.88
2023-01-25T08:29:16.115Z,20.03
2023-01-25T08:31:45.715Z,20.21
2023-01-25T08:34:15.804Z,20.48
2023-01-25T08:36:44.505Z,20.87
2023-01-25T08:39:13.644Z,21.27
2023-01-25T08:41:43.269Z,21.42
2023-01-25T08:44:12.240Z,20.95
2023-01-25T08:46:41.409Z,20.93
2023-01-25T08:49:10.999Z,21.65
2023-01-25T08:51:39.947Z,22.43
2023-01-25T08:54:13.079Z,22.93
2023-01-25T08:56:43.453Z,23.41
2023-01-25T08:59:13.763Z,21.99
2023-01-25T09:01:43.808Z,20.68
2023-01-25T09:04:13.108Z,19.71
2023-01-25T09:06:42.338Z,18.38
2023-01-25T09:09:13.574Z,17.34
2023-01-25T09:11:43.040Z,16.52
2023-01-25T09:14:12.712Z,16.34
2023-01-25T09:16:42.981Z,17.41
2023-01-25T09:19:11.867Z,18.55
2023-01-25T09:21:40.921Z,18.69
2023-01-25T09:24:09.928Z,19.65
2023-01-25T09:26:45.965Z,21.50
2023-01-25T09:29:20.180Z,22.61
2023-01-25T09:31:49.846Z,23.61
2023-01-25T09:34:19.161Z,24.35
2023-01-25T09:36:48.331Z,25.32
2023-01-25T09:39:17.227Z,26.13
2023-01-25T09:41:58.441Z,26.91
2023-01-25T09:44:48.062Z,27.72
2023-01-25T09:47:43.046Z,28.47
2023-01-25T09:50:32.408Z,29.02
2023-01-25T09:53:46.384Z,29.02
2023-01-25T09:56:18.253Z,26.83
2023-01-25T09:58:51.493Z,26.31
2023-01-25T10:01:37.440Z,26.19
2023-01-25T10:04:25.475Z,26.78
2023-01-25T10:07:04.529Z,28.03
2023-01-25T10:09:57.854Z,29.37
2023-01-25T10:12:31.699Z,30.01
2023-01-25T10:15:00.351Z,30.90
2023-01-25T10:17:40.971Z,31.40
2023-01-25T10:20:26.986Z,32.17
2023-01-25T10:23:28.994Z,32.97
2023-01-25T10:26:01.853Z,33.25
2023-01-25T10:28:53.515Z,33.62
2023-01-25T10:31:36.139Z,33.58
2023-01-25T10:34:17.507Z,33.79
2023-01-25T10:37:14.728Z,34.11
2023-01-25T10:39:55.195Z,33.73
2023-01-25T10:42:28.355Z,33.84
2023-01-25T10:44:57.872Z,33.16
2023-01-25T10:47:36.396Z,31.67
2023-01-25T10:50:06.081Z,30.86
2023-01-25T10:52:38.077Z,29.68
2023-01-25T10:55:18.208Z,27.64
2023-01-25T10:57:52.441Z,25.72
2023-01-25T11:00:30.414Z,23.71
2023-01-25T11:03:00.026Z,22.31
2023-01-25T11:05:41.286Z,21.53
2023-01-25T11:08:35.689Z,20.36
2023-01-25T11:11:32.391Z,19.57
2023-01-25T11:14:02.786Z,18.76
2023-01-25T11:16:37.128Z,18.46
2023-01-25T11:19:27.851Z,18.00
2023-01-25T11:21:59.196Z,17.42
2023-01-25T11:24:36.545Z,17.22
2023-01-25T11:27:18.727Z,16.87
2023-01-25T11:30:10.812Z,16.42
2023-01-25T11:32:42.412Z,16.17
2023-01-25T11:35:26.773Z,16.10
2023-01-25T11:38:11.014Z,15.84
2023-01-25T11:41:08.398Z,15.72
2023-01-25T11:43:55.156Z,15.63
2023-01-25T11:46:56.646Z,15.50
2023-01-25T11:49:41.342Z,15.38
2023-01-25T11:52:41.626Z,15.58
2023-01-25T11:55:23.426Z,15.43
2023-01-25T11:58:19.173Z,15.46
2023-01-25T12:01:10.994Z,15.23
2023-01-25T12:03:52.479Z,14.97
2023-01-25T12:06:37.394Z,14.80
2023-01-25T12:09:45.238Z,14.70
2023-01-25T12:12:30.169Z,14.38
2023-01-25T12:15:23.838Z,14.17
2023-01-25T12:17:56.687Z,14.04
2023-01-25T12:20:40.885Z,14.12
2023-01-25T12:23:15.613Z,14.07
2023-01-25T12:26:12.493Z,14.07
2023-01-25T12:29:11.013Z,14.02
2023-01-25T12:31:40.418Z,13.84
2023-01-25T12:34:26.193Z,13.83
2023-01-25T12:36:58.269Z,13.82
2023-01-25T12:39:38.942Z,13.87
2023-01-25T12:42:28.405Z,13.92
2023-01-25T12:45:14.698Z,14.25
2023-01-25T12:48:07.650Z,14.98
2023-01-25T12:50:42.881Z,16.26
2023-01-25T12:53:25.162Z,17.86
2023-01-25T12:55:56.088Z,19.40
2023-01-25T12:58:39.763Z,20.56
2023-01-25T13:01:19.227Z,21.67
2023-01-25T13:04:21.021Z,22.89
2023-01-25T13:07:18.367Z,23.70
2023-01-25T13:10:03.045Z,23.69
2023-01-25T13:12:53.266Z,23.51
2023-01-25T13:15:56.585Z,23.89
2023-01-25T13:18:26.004Z,24.74
2023-01-25T13:21:01.199Z,25.10
2023-01-25T13:23:33.347Z,24.19
2023-01-25T13:26:24.997Z,23.56
2023-01-25T13:28:55.933Z,22.85
2023-01-25T13:31:51.667Z,21.43
2023-01-25T13:34:37.957Z,20.55
2023-01-25T13:37:18.489Z,20.67
2023-01-25T13:39:56.180Z,20.05
2023-01-25T13:42:28.959Z,19.16
2023-01-25T13:45:19.379Z,19.27
2023-01-25T13:48:07.293Z,19.17
2023-01-25T13:50:46.176Z,18.51
2023-01-25T13:53:15.110Z,18.20
2023-01-25T13:55:50.288Z,18.11
2023-01-25T13:58:33.839Z,17.55
2023-01-25T14:01:14.094Z,17.11
2023-01-25T14:03:52.136Z,16.90
2023-01-25T14:06:29.035Z,17.00
2023-01-25T14:09:03.632Z,17.00
2023-01-25T14:11:35.890Z,16.83
2023-01-25T14:14:17.561Z,16.89
2023-01-25T14:16:47.409Z,16.95
2023-01-25T14:19:25.228Z,17.01
2023-01-25T14:22:31.262Z,17.59
2023-01-25T14:25:12.414Z,17.99
2023-01-25T14:27:51.761Z,18.16
2023-01-25T14:30:31.057Z,18.65
2023-01-25T14:33:17.281Z,18.93
2023-01-25T14:36:00.005Z,18.70
2023-01-25T14:38:39.595Z,18.48
2023-01-25T14:41:16.748Z,18.25
2023-01-25T14:43:52.531Z,18.44
2023-01-25T14:46:34.071Z,18.70
2023-01-25T14:49:27.182Z,18.92
2023-01-25T14:52:14.939Z,19.22
2023-01-25T14:54:59.572Z,19.47
2023-01-25T14:57:36.268Z,19.70
2023-01-25T15:00:23.030Z,19.10
2023-01-25T15:02:56.826Z,18.08
2023-01-25T15:05:30.865Z,17.09
2023-01-25T15:08:09.065Z,16.38
2023-01-25T15:10:50.334Z,15.64
2023-01-25T15:13:27.889Z,15.01
2023-01-25T15:16:00.243Z,14.53
2023-01-25T15:18:56.370Z,14.17
2023-01-25T15:21:29.521Z,13.61
2023-01-25T15:24:05.203Z,13.23
2023-01-25T15:26:36.508Z,12.72
2023-01-25T15:29:27.428Z,12.57
2023-01-25T15:31:57.513Z,12.38
2023-01-25T15:34:30.696Z,12.28
2023-01-25T15:36:59.779Z,12.10
2023-01-25T15:39:29.850Z,11.96
2023-01-25T15:41:59.172Z,11.79
2023-01-25T15:44:29.413Z,11.66
2023-01-25T15:46:58.559Z,11.49
2023-01-25T15:49:29.886Z,11.33
2023-01-25T15:51:58.309Z,11.27
2023-01-25T15:54:27.821Z,11.22
2023-01-25T15:56:59.311Z,11.16
2023-01-25T15:59:29.417Z,10.99
2023-01-25T16:01:58.225Z,10.76
2023-01-25T16:04:26.964Z,10.59
2023-01-25T16:06:55.762Z,10.45
2023-01-25T16:09:31.179Z,10.36
2023-01-25T16:12:01.938Z,10.22
2023-01-25T16:14:31.947Z,10.10
2023-01-25T16:17:04.651Z,9.99
2023-01-25T16:19:34.323Z,9.88
2023-01-25T16:22:03.240Z,9.83
2023-01-25T16:24:32.026Z,9.68
2023-01-25T16:27:01.792Z,9.56
2023-01-25T16:29:30.632Z,9.50
2023-01-25T16:31:59.717Z,9.40
2023-01-25T16:34:28.808Z,9.30
2023-01-25T16:37:00.643Z,9.21
2023-01-25T16:39:30.094Z,9.14
2023-01-25T16:41:59.664Z,9.05
2023-01-25T16:44:29.830Z,8.93
2023-01-25T16:46:59.793Z,8.82
2023-01-25T16:49:32.226Z,8.74
2023-01-25T16:52:04.465Z,8.72
2023-01-25T16:54:34.092Z,8.70
2023-01-25T16:57:15.106Z,8.67
2023-01-25T16:59:49.538Z,8.61
2023-01-25T17:02:19.039Z,8.60
2023-01-25T17:04:48.007Z,8.56
2023-01-25T17:07:17.317Z,8.52
2023-01-25T17:09:46.898Z,8.45
2023-01-25T17:12:16.937Z,8.40
2023-01-25T17:14:47.081Z,8.37
2023-01-25T17:17:16.439Z,8.38
2023-01-25T17:19:45.701Z,8.40
2023-01-25T17:22:14.736Z,8.36
2023-01-25T17:24:44.029Z,8.32
2023-01-25T17:27:16.139Z,8.30
2023-01-25T17:29:46.824Z,8.29
2023-01-25T17:32:16.565Z,8.20
2023-01-25T17:34:46.219Z,8.17
2023-01-25T17:37:15.557Z,8.13
2023-01-25T17:39:45.399Z,8.13
2023-01-25T17:42:14.929Z,8.16
2023-01-25T17:44:44.225Z,8.16
2023-01-25T17:47:16.572Z,8.15
2023-01-25T17:49:47.723Z,8.14
2023-01-25T17:52:18.593Z,8.07
2023-01-25T17:54:48.692Z,8.01
2023-01-25T17:57:24.960Z,7.95
2023-01-25T17:59:54.598Z,7.89
2023-01-25T18:02:24.609Z,7.88
2023-01-25T18:04:54.283Z,7.83
2023-01-25T18:07:22.823Z,7.84
2023-01-25T18:09:52.150Z,7.81
2023-01-25T18:12:21.548Z,7.83
2023-01-25T18:14:51.084Z,7.84
2023-01-25T18:17:20.150Z,7.81
2023-01-25T18:19:50.121Z,7.78
2023-01-25T18:22:19.408Z,7.73
2023-01-25T18:24:51.302Z,7.72
2023-01-25T18:27:24.958Z,7.71
2023-01-25T18:30:02.777Z,7.73
2023-01-25T18:32:36.319Z,7.70
2023-01-25T18:35:07.369Z,7.65
2023-01-25T18:37:44.372Z,7.59
2023-01-25T18:40:15.855Z,7.46
2023-01-25T18:42:46.046Z,7.47
2023-01-25T18:45:15.982Z,7.46
2023-01-25T18:47:46.317Z,7.39
2023-01-25T18:50:16.767Z,7.37
2023-01-25T18:52:45.610Z,7.32
2023-01-25T18:55:14.466Z,7.30
2023-01-25T18:57:44.593Z,7.32
2023-01-25T19:00:15.367Z,7.29
2023-01-25T19:02:45.409Z,7.26
2023-01-25T19:05:19.955Z,7.23
2023-01-25T19:07:50.194Z,7.24
2023-01-25T19:10:20.063Z,7.25
2023-01-25T19:12:49.477Z,7.29
2023-01-25T19:15:20.606Z,7.25
2023-01-25T19:17:50.231Z,7.25
2023-01-25T19:20:19.197Z,7.34
2023-01-25T19:22:48.422Z,7.36
2023-01-25T19:25:18.695Z,7.37
2023-01-25T19:27:48.103Z,7.38
2023-01-25T19:30:17.052Z,7.35
2023-01-25T19:32:46.602Z,7.36
2023-01-25T19:35:16.220Z,7.35
2023-01-25T19:37:45.351Z,7.35
2023-01-25T19:40:15.396Z,7.31
2023-01-25T19:42:44.534Z,7.31
2023-01-25T19:45:14.087Z,7.34
2023-01-25T19:47:43.440Z,7.39
2023-01-25T19:50:12.964Z,7.41
2023-01-25T19:52:42.296Z,7.41
2023-01-25T19:55:11.557Z,7.38
2023-01-25T19:57:41.667Z,7.35
2023-01-25T20:00:12.235Z,7.33
2023-01-25T20:02:42.355Z,7.35
2023-01-25T20:05:11.999Z,7.26
2023-01-25T20:07:42.520Z,7.21
2023-01-25T20:10:12.441Z,7.20
2023-01-25T20:12:41.311Z,7.20
2023-01-25T20:15:13.164Z,7.18
2023-01-25T20:17:43.964Z,7.14
2023-01-25T20:20:13.442Z,7.09
2023-01-25T20:22:43.186Z,7.04
2023-01-25T20:25:12.614Z,7.04
2023-01-25T20:27:41.808Z,7.03
2023-01-25T20:30:11.816Z,7.02
2023-01-25T20:32:41.504Z,6.97
2023-01-25T20:35:11.341Z,6.91
2023-01-25T20:37:40.776Z,6.91
2023-01-25T20:40:11.408Z,6.90
2023-01-25T20:42:40.355Z,6.85
2023-01-25T20:45:11.910Z,6.75
2023-01-25T20:47:41.771Z,6.70
2023-01-25T20:50:12.166Z,6.70
2023-01-25T20:52:41.852Z,6.68
2023-01-25T20:55:13.622Z,6.62
2023-01-25T20:57:42.839Z,6.56
2023-01-25T21:00:11.907Z,6.54
2023-01-25T21:02:41.859Z,6.53
2023-01-25T21:05:13.198Z,6.51
2023-01-25T21:07:42.696Z,6.48
2023-01-25T21:10:12.403Z,6.45
2023-01-25T21:12:41.500Z,6.44
2023-01-25T21:15:12.861Z,6.50
2023-01-25T21:17:41.793Z,6.51
2023-01-25T21:20:11.332Z,6.49
2023-01-25T21:22:40.294Z,6.51
2023-01-25T21:25:10.026Z,6.50
2023-01-25T21:27:39.342Z,6.54
2023-01-25T21:30:10.497Z,6.53
2023-01-25T21:32:39.589Z,6.52
2023-01-25T21:35:09.585Z,6.53
2023-01-25T21:37:39.635Z,6.55
2023-01-25T21:40:15.167Z,6.55
2023-01-25T21:42:45.227Z,6.59
2023-01-25T21:45:37.505Z,6.62
2023-01-25T21:48:07.643Z,6.63
2023-01-25T21:51:00.502Z,6.71
2023-01-25T21:53:30.523Z,6.68
2023-01-25T21:56:00.640Z,6.57
2023-01-25T21:58:30.492Z,6.59
2023-01-25T22:01:02.697Z,6.67
2023-01-25T22:03:32.140Z,6.70
2023-01-25T22:06:00.868Z,6.69
2023-01-25T22:08:29.853Z,6.65
2023-01-25T22:11:03.253Z,6.67
2023-01-25T22:13:33.180Z,6.72
2023-01-25T22:16:05.116Z,6.75
2023-01-25T22:18:36.814Z,6.75
2023-01-25T22:21:35.295Z,6.73
2023-01-25T22:24:06.260Z,6.63
2023-01-25T22:27:03.687Z,6.65
2023-01-25T22:29:35.899Z,6.71
2023-01-25T22:32:05.090Z,6.73
2023-01-25T22:34:33.909Z,6.70
2023-01-25T22:37:02.664Z,6.66
2023-01-25T22:39:31.392Z,6.73
2023-01-25T22:42:00.216Z,6.80
2023-01-25T22:44:28.996Z,6.77
2023-01-25T22:46:59.139Z,6.70
2023-01-25T22:49:27.906Z,6.61
2023-01-25T22:51:57.067Z,6.58
2023-01-25T22:54:26.003Z,6.57
2023-01-25T22:56:55.210Z,6.55
2023-01-25T22:59:24.511Z,6.50
2023-01-25T23:01:53.425Z,6.45
2023-01-25T23:04:22.236Z,6.46
2023-01-25T23:07:11.138Z,6.43
2023-01-25T23:09:40.894Z,6.35
2023-01-25T23:12:10.549Z,6.43
2023-01-25T23:14:51.923Z,6.44
2023-01-25T23:17:41.820Z,6.39
2023-01-25T23:20:13.148Z,6.42
2023-01-25T23:22:42.653Z,6.40
2023-01-25T23:25:12.683Z,6.37
2023-01-25T23:27:41.535Z,6.35
2023-01-25T23:30:11.156Z,6.38
2023-01-25T23:32:40.419Z,6.39
2023-01-25T23:35:09.560Z,6.36
2023-01-25T23:37:38.289Z,6.37
2023-01-25T23:40:09.583Z,6.34
2023-01-25T23:42:39.763Z,6.35
2023-01-25T23:45:12.264Z,6.41
2023-01-25T23:47:42.508Z,6.44
2023-01-25T23:50:12.654Z,6.35
2023-01-25T23:52:41.866Z,6.35
2023-01-25T23:55:11.747Z,6.43
2023-01-25T23:57:41.168Z,6.50
